sensor_id;sensor_type;location;lat;lon;timestamp;pressure;altitude;pressure_sealevel;temperature;humidity
3150;BME280;32503;47.748;8.960;2023-05-25T00:01:02;97082.84;;;15.09;46.42
3150;BME280;32503;47.748;8.960;2023-05-25T00:03:29;97083.53;;;14.98;46.18
3150;BME280;32503;47.748;8.960;2023-05-25T00:05:56;97076.13;;;14.99;46.65
3150;BME280;32503;47.748;8.960;2023-05-25T00:08:27;97076.50;;;14.97;46.23
3150;BME280;32503;47.748;8.960;2023-05-25T00:10:54;97073.38;;;14.92;46.40
3150;BME280;32503;47.748;8.960;2023-05-25T00:13:21;97077.69;;;14.96;46.57
3150;BME280;32503;47.748;8.960;2023-05-25T00:15:48;97062.00;;;14.79;46.43
3150;BME280;32503;47.748;8.960;2023-05-25T00:18:16;97068.31;;;14.94;46.13
3150;BME280;32503;47.748;8.960;2023-05-25T00:20:43;97075.75;;;14.97;46.03
3150;BME280;32503;47.748;8.960;2023-05-25T00:23:10;97048.75;;;14.77;46.28
3150;BME280;32503;47.748;8.960;2023-05-25T00:25:39;97062.47;;;14.92;46.07
3150;BME280;32503;47.748;8.960;2023-05-25T00:28:06;97072.97;;;14.90;46.32
3150;BME280;32503;47.748;8.960;2023-05-25T00:30:33;97060.53;;;14.92;46.01
3150;BME280;32503;47.748;8.960;2023-05-25T00:33:00;97060.84;;;14.84;45.65
3150;BME280;32503;47.748;8.960;2023-05-25T00:35:27;97040.59;;;14.77;45.99
3150;BME280;32503;47.748;8.960;2023-05-25T00:37:54;97047.63;;;14.86;46.01
3150;BME280;32503;47.748;8.960;2023-05-25T00:40:21;97054.59;;;14.76;45.89
3150;BME280;32503;47.748;8.960;2023-05-25T00:42:50;97054.47;;;14.62;46.27
3150;BME280;32503;47.748;8.960;2023-05-25T00:45:18;97053.78;;;14.72;45.97
3150;BME280;32503;47.748;8.960;2023-05-25T00:47:50;97051.81;;;14.69;46.24
3150;BME280;32503;47.748;8.960;2023-05-25T00:50:21;97035.78;;;14.60;46.38
3150;BME280;32503;47.748;8.960;2023-05-25T00:52:55;97047.50;;;14.68;45.96
3150;BME280;32503;47.748;8.960;2023-05-25T00:55:22;97050.94;;;14.61;45.93
3150;BME280;32503;47.748;8.960;2023-05-25T00:57:57;97051.44;;;14.70;46.17
3150;BME280;32503;47.748;8.960;2023-05-25T01:00:27;97049.88;;;14.73;45.78
3150;BME280;32503;47.748;8.960;2023-05-25T01:02:56;97024.16;;;14.63;46.04
3150;BME280;32503;47.748;8.960;2023-05-25T01:05:25;97046.00;;;14.74;45.90
3150;BME280;32503;47.748;8.960;2023-05-25T01:07:55;97046.78;;;14.74;46.15
3150;BME280;32503;47.748;8.960;2023-05-25T01:10:23;97053.84;;;14.79;46.13
3150;BME280;32503;47.748;8.960;2023-05-25T01:12:52;97044.88;;;14.78;45.68
3150;BME280;32503;47.748;8.960;2023-05-25T01:15:22;97053.88;;;14.86;46.07
3150;BME280;32503;47.748;8.960;2023-05-25T01:17:50;97051.13;;;14.83;45.81
3150;BME280;32503;47.748;8.960;2023-05-25T01:20:18;97054.63;;;14.83;45.50
3150;BME280;32503;47.748;8.960;2023-05-25T01:22:53;97047.63;;;14.86;45.84
3150;BME280;32503;47.748;8.960;2023-05-25T01:25:25;97056.22;;;14.84;46.35
3150;BME280;32503;47.748;8.960;2023-05-25T01:27:59;97037.47;;;14.75;46.48
3150;BME280;32503;47.748;8.960;2023-05-25T01:30:31;97052.22;;;14.74;47.56
3150;BME280;32503;47.748;8.960;2023-05-25T01:32:59;97041.31;;;14.71;47.64
3150;BME280;32503;47.748;8.960;2023-05-25T01:35:27;97048.34;;;14.72;48.49
3150;BME280;32503;47.748;8.960;2023-05-25T01:37:57;97050.66;;;14.73;48.05
3150;BME280;32503;47.748;8.960;2023-05-25T01:40:24;97041.59;;;14.58;48.23
3150;BME280;32503;47.748;8.960;2023-05-25T01:42:52;97050.19;;;14.64;48.09
3150;BME280;32503;47.748;8.960;2023-05-25T01:45:19;97057.22;;;14.65;48.50
3150;BME280;32503;47.748;8.960;2023-05-25T01:47:58;97048.66;;;14.63;49.12
3150;BME280;32503;47.748;8.960;2023-05-25T01:50:35;97040.84;;;14.58;48.37
3150;BME280;32503;47.748;8.960;2023-05-25T01:53:08;97056.78;;;14.59;48.58
3150;BME280;32503;47.748;8.960;2023-05-25T01:55:41;97045.84;;;14.56;49.18
3150;BME280;32503;47.748;8.960;2023-05-25T01:58:10;97045.84;;;14.56;49.29
3150;BME280;32503;47.748;8.960;2023-05-25T02:00:41;97048.94;;;14.54;49.31
3150;BME280;32503;47.748;8.960;2023-05-25T02:03:08;97047.41;;;14.57;49.43
3150;BME280;32503;47.748;8.960;2023-05-25T02:05:37;97052.06;;;14.56;49.67
3150;BME280;32503;47.748;8.960;2023-05-25T02:08:08;97051.13;;;14.41;49.13
3150;BME280;32503;47.748;8.960;2023-05-25T02:10:35;97039.91;;;14.47;49.16
3150;BME280;32503;47.748;8.960;2023-05-25T02:13:02;97041.50;;;14.48;49.01
3150;BME280;32503;47.748;8.960;2023-05-25T02:15:32;97040.75;;;14.51;48.90
3150;BME280;32503;47.748;8.960;2023-05-25T02:17:59;97040.31;;;14.49;48.68
3150;BME280;32503;47.748;8.960;2023-05-25T02:20:26;97044.25;;;14.51;48.40
3150;BME280;32503;47.748;8.960;2023-05-25T02:22:53;97040.41;;;14.56;48.39
3150;BME280;32503;47.748;8.960;2023-05-25T02:25:22;97033.72;;;14.50;48.78
3150;BME280;32503;47.748;8.960;2023-05-25T02:27:49;97031.72;;;14.43;48.68
3150;BME280;32503;47.748;8.960;2023-05-25T02:30:16;97036.38;;;14.43;48.72
3150;BME280;32503;47.748;8.960;2023-05-25T02:32:43;97028.56;;;14.37;49.02
3150;BME280;32503;47.748;8.960;2023-05-25T02:35:10;97030.94;;;14.43;49.36
3150;BME280;32503;47.748;8.960;2023-05-25T02:37:38;97030.53;;;14.37;49.22
3150;BME280;32503;47.748;8.960;2023-05-25T02:40:06;97020.00;;;14.35;49.21
3150;BME280;32503;47.748;8.960;2023-05-25T02:42:35;97019.97;;;14.32;49.63
3150;BME280;32503;47.748;8.960;2023-05-25T02:45:03;97020.66;;;14.21;50.03
3150;BME280;32503;47.748;8.960;2023-05-25T02:47:31;97027.66;;;14.22;50.10
3150;BME280;32503;47.748;8.960;2023-05-25T02:49:58;97012.81;;;14.13;50.47
3150;BME280;32503;47.748;8.960;2023-05-25T02:52:25;97025.66;;;14.16;50.82
3150;BME280;32503;47.748;8.960;2023-05-25T02:54:52;97021.41;;;14.18;50.44
3150;BME280;32503;47.748;8.960;2023-05-25T02:57:19;97022.16;;;14.15;50.68
3150;BME280;32503;47.748;8.960;2023-05-25T02:59:47;97010.78;;;14.06;50.93
3150;BME280;32503;47.748;8.960;2023-05-25T03:02:15;97025.97;;;14.07;51.07
3150;BME280;32503;47.748;8.960;2023-05-25T03:04:45;97015.91;;;14.11;50.74
3150;BME280;32503;47.748;8.960;2023-05-25T03:07:14;97017.03;;;14.07;51.00
3150;BME280;32503;47.748;8.960;2023-05-25T03:09:41;97006.53;;;14.05;50.72
3150;BME280;32503;47.748;8.960;2023-05-25T03:12:08;97004.91;;;14.00;50.73
3150;BME280;32503;47.748;8.960;2023-05-25T03:14:35;97006.50;;;14.01;50.85
3150;BME280;32503;47.748;8.960;2023-05-25T03:17:04;96992.31;;;13.85;51.16
3150;BME280;32503;47.748;8.960;2023-05-25T03:19:31;97014.94;;;13.93;51.17
3150;BME280;32503;47.748;8.960;2023-05-25T03:21:58;96984.34;;;13.65;51.04
3150;BME280;32503;47.748;8.960;2023-05-25T03:24:25;97029.63;;;13.88;51.18
3150;BME280;32503;47.748;8.960;2023-05-25T03:26:53;97028.09;;;13.87;51.10
3150;BME280;32503;47.748;8.960;2023-05-25T03:29:20;97031.97;;;13.90;51.12
3150;BME280;32503;47.748;8.960;2023-05-25T03:31:47;97004.75;;;13.82;51.02
3150;BME280;32503;47.748;8.960;2023-05-25T03:34:15;97019.97;;;13.91;51.46
3150;BME280;32503;47.748;8.960;2023-05-25T03:36:43;97021.16;;;13.93;51.19
3150;BME280;32503;47.748;8.960;2023-05-25T03:39:12;97020.34;;;13.89;51.21
3150;BME280;32503;47.748;8.960;2023-05-25T03:41:39;97019.13;;;13.87;51.37
3150;BME280;32503;47.748;8.960;2023-05-25T03:44:07;97025.78;;;13.89;51.37
3150;BME280;32503;47.748;8.960;2023-05-25T03:46:35;97030.84;;;13.91;51.40
3150;BME280;32503;47.748;8.960;2023-05-25T03:49:02;97033.56;;;13.91;51.34
3150;BME280;32503;47.748;8.960;2023-05-25T03:51:31;97031.91;;;13.82;51.15
3150;BME280;32503;47.748;8.960;2023-05-25T03:53:58;97046.28;;;13.83;51.60
3150;BME280;32503;47.748;8.960;2023-05-25T03:56:25;97054.34;;;13.76;51.84
3150;BME280;32503;47.748;8.960;2023-05-25T03:58:52;97059.44;;;13.81;51.76
3150;BME280;32503;47.748;8.960;2023-05-25T04:01:19;97054.09;;;13.88;51.64
3150;BME280;32503;47.748;8.960;2023-05-25T04:03:46;97048.38;;;13.97;51.53
3150;BME280;32503;47.748;8.960;2023-05-25T04:06:13;97050.47;;;14.11;51.10
3150;BME280;32503;47.748;8.960;2023-05-25T04:08:45;97050.94;;;14.20;50.91
3150;BME280;32503;47.748;8.960;2023-05-25T04:11:12;97049.88;;;14.28;50.77
3150;BME280;32503;47.748;8.960;2023-05-25T04:13:39;97060.53;;;14.48;55.03
3150;BME280;32503;47.748;8.960;2023-05-25T04:16:06;97053.69;;;14.65;52.59
3150;BME280;32503;47.748;8.960;2023-05-25T04:18:34;97059.59;;;14.70;51.00
3150;BME280;32503;47.748;8.960;2023-05-25T04:21:01;97059.22;;;14.72;49.73
3150;BME280;32503;47.748;8.960;2023-05-25T04:23:29;97059.22;;;14.72;49.71
3150;BME280;32503;47.748;8.960;2023-05-25T04:26:00;97065.44;;;14.72;49.87
3150;BME280;32503;47.748;8.960;2023-05-25T04:28:28;97065.50;;;14.79;49.76
3150;BME280;32503;47.748;8.960;2023-05-25T04:30:55;97063.19;;;14.85;49.76
3150;BME280;32503;47.748;8.960;2023-05-25T04:33:22;97073.03;;;14.97;49.73
3150;BME280;32503;47.748;8.960;2023-05-25T04:35:49;97064.91;;;15.04;49.61
3150;BME280;32503;47.748;8.960;2023-05-25T04:38:19;97065.75;;;15.15;49.02
3150;BME280;32503;47.748;8.960;2023-05-25T04:40:46;97061.88;;;15.20;48.93
3150;BME280;32503;47.748;8.960;2023-05-25T04:43:14;97063.91;;;15.34;48.89
3150;BME280;32503;47.748;8.960;2023-05-25T04:45:43;97060.06;;;15.46;48.57
3150;BME280;32503;47.748;8.960;2023-05-25T04:48:10;97061.69;;;15.58;48.59
3150;BME280;32503;47.748;8.960;2023-05-25T04:50:37;97064.88;;;15.74;48.49
3150;BME280;32503;47.748;8.960;2023-05-25T04:53:05;97066.91;;;15.91;47.88
3150;BME280;32503;47.748;8.960;2023-05-25T04:55:33;97066.19;;;16.05;47.81
3150;BME280;32503;47.748;8.960;2023-05-25T04:58:00;97075.22;;;16.20;47.13
3150;BME280;32503;47.748;8.960;2023-05-25T05:00:29;97067.06;;;16.38;46.91
3150;BME280;32503;47.748;8.960;2023-05-25T05:02:57;97066.69;;;16.54;46.88
3150;BME280;32503;47.748;8.960;2023-05-25T05:05:25;97063.97;;;16.76;46.74
3150;BME280;32503;47.748;8.960;2023-05-25T05:07:52;97060.09;;;16.91;46.08
3150;BME280;32503;47.748;8.960;2023-05-25T05:10:19;97056.19;;;17.17;45.55
3150;BME280;32503;47.748;8.960;2023-05-25T05:12:46;97055.31;;;17.46;45.06
3150;BME280;32503;47.748;8.960;2023-05-25T05:15:13;97064.59;;;17.70;44.20
3150;BME280;32503;47.748;8.960;2023-05-25T05:17:42;97060.66;;;17.85;44.01
3150;BME280;32503;47.748;8.960;2023-05-25T05:20:09;97059.44;;;18.00;43.95
3150;BME280;32503;47.748;8.960;2023-05-25T05:22:37;97065.94;;;18.25;43.60
3150;BME280;32503;47.748;8.960;2023-05-25T05:25:05;97069.38;;;18.40;43.23
3150;BME280;32503;47.748;8.960;2023-05-25T05:27:33;97068.06;;;18.62;42.66
3150;BME280;32503;47.748;8.960;2023-05-25T05:30:00;97069.16;;;18.72;42.00
3150;BME280;32503;47.748;8.960;2023-05-25T05:32:28;97085.13;;;18.81;42.16
3150;BME280;32503;47.748;8.960;2023-05-25T05:34:57;97067.59;;;18.71;41.97
3150;BME280;32503;47.748;8.960;2023-05-25T05:37:24;97085.88;;;18.81;42.30
3150;BME280;32503;47.748;8.960;2023-05-25T05:39:51;97082.34;;;18.88;42.16
3150;BME280;32503;47.748;8.960;2023-05-25T05:42:18;97078.78;;;18.94;42.06
3150;BME280;32503;47.748;8.960;2023-05-25T05:44:45;97074.88;;;18.96;41.87
3150;BME280;32503;47.748;8.960;2023-05-25T05:47:12;97077.16;;;19.04;42.02
3150;BME280;32503;47.748;8.960;2023-05-25T05:49:39;97080.97;;;19.14;42.03
3150;BME280;32503;47.748;8.960;2023-05-25T05:52:08;97084.25;;;19.40;41.58
3150;BME280;32503;47.748;8.960;2023-05-25T05:54:35;97075.34;;;19.66;41.10
3150;BME280;32503;47.748;8.960;2023-05-25T05:57:02;97075.72;;;19.68;41.21
3150;BME280;32503;47.748;8.960;2023-05-25T05:59:29;97076.44;;;19.76;41.10
3150;BME280;32503;47.748;8.960;2023-05-25T06:01:56;97075.56;;;19.83;41.05
3150;BME280;32503;47.748;8.960;2023-05-25T06:04:23;97082.34;;;20.05;40.94
3150;BME280;32503;47.748;8.960;2023-05-25T06:06:53;97068.59;;;20.36;40.60
3150;BME280;32503;47.748;8.960;2023-05-25T06:09:21;97069.53;;;20.26;40.87
3150;BME280;32503;47.748;8.960;2023-05-25T06:11:48;97094.41;;;20.12;40.94
3150;BME280;32503;47.748;8.960;2023-05-25T06:14:16;97071.59;;;19.87;41.51
3150;BME280;32503;47.748;8.960;2023-05-25T06:16:43;97072.31;;;19.57;42.23
3150;BME280;32503;47.748;8.960;2023-05-25T06:19:10;97065.63;;;19.58;42.31
3150;BME280;32503;47.748;8.960;2023-05-25T06:21:38;97081.50;;;19.40;42.96
3150;BME280;32503;47.748;8.960;2023-05-25T06:24:06;97063.41;;;19.08;43.77
3150;BME280;32503;47.748;8.960;2023-05-25T06:26:35;97078.22;;;19.14;43.93
3150;BME280;32503;47.748;8.960;2023-05-25T06:29:02;97075.03;;;19.19;44.20
3150;BME280;32503;47.748;8.960;2023-05-25T06:31:29;97064.84;;;19.20;44.11
3150;BME280;32503;47.748;8.960;2023-05-25T06:33:56;97076.53;;;19.27;44.08
3150;BME280;32503;47.748;8.960;2023-05-25T06:36:23;97083.56;;;19.28;44.04
3150;BME280;32503;47.748;8.960;2023-05-25T06:38:50;97090.38;;;19.13;44.63
3150;BME280;32503;47.748;8.960;2023-05-25T06:41:17;97090.25;;;19.27;44.34
3150;BME280;32503;47.748;8.960;2023-05-25T06:43:46;97095.50;;;19.49;43.76
3150;BME280;32503;47.748;8.960;2023-05-25T06:46:13;97107.94;;;19.61;43.75
3150;BME280;32503;47.748;8.960;2023-05-25T06:48:43;97096.66;;;19.10;45.00
3150;BME280;32503;47.748;8.960;2023-05-25T06:51:10;97106.22;;;18.87;45.33
3150;BME280;32503;47.748;8.960;2023-05-25T06:53:37;97109.88;;;19.22;45.30
3150;BME280;32503;47.748;8.960;2023-05-25T06:56:05;97096.03;;;19.37;44.61
3150;BME280;32503;47.748;8.960;2023-05-25T06:58:32;97123.88;;;19.31;45.15
3150;BME280;32503;47.748;8.960;2023-05-25T07:01:01;97105.31;;;19.05;45.64
3150;BME280;32503;47.748;8.960;2023-05-25T07:03:28;97111.34;;;18.85;46.26
3150;BME280;32503;47.748;8.960;2023-05-25T07:05:55;97101.19;;;18.82;46.16
3150;BME280;32503;47.748;8.960;2023-05-25T07:08:22;97112.00;;;19.00;46.32
3150;BME280;32503;47.748;8.960;2023-05-25T07:10:49;97114.59;;;19.18;46.34
3150;BME280;32503;47.748;8.960;2023-05-25T07:13:16;97111.56;;;19.50;45.58
3150;BME280;32503;47.748;8.960;2023-05-25T07:15:43;97121.13;;;19.77;44.90
3150;BME280;32503;47.748;8.960;2023-05-25T07:18:12;97119.91;;;20.12;44.43
3150;BME280;32503;47.748;8.960;2023-05-25T07:20:39;97119.75;;;19.92;44.52
3150;BME280;32503;47.748;8.960;2023-05-25T07:23:07;97108.88;;;19.81;44.47
3150;BME280;32503;47.748;8.960;2023-05-25T07:25:34;97117.34;;;19.98;44.74
3150;BME280;32503;47.748;8.960;2023-05-25T07:28:02;97106.41;;;20.25;44.07
3150;BME280;32503;47.748;8.960;2023-05-25T07:30:29;97102.00;;;20.62;43.44
3150;BME280;32503;47.748;8.960;2023-05-25T07:32:56;97109.44;;;20.89;42.89
3150;BME280;32503;47.748;8.960;2023-05-25T07:35:25;97113.75;;;21.13;42.18
3150;BME280;32503;47.748;8.960;2023-05-25T07:37:56;97113.50;;;21.28;42.23
3150;BME280;32503;47.748;8.960;2023-05-25T07:40:23;97123.81;;;21.24;42.68
3150;BME280;32503;47.748;8.960;2023-05-25T07:42:50;97128.69;;;21.12;43.11
3150;BME280;32503;47.748;8.960;2023-05-25T07:45:17;97123.28;;;20.81;43.35
3150;BME280;32503;47.748;8.960;2023-05-25T07:47:44;97131.88;;;20.56;43.53
3150;BME280;32503;47.748;8.960;2023-05-25T07:50:12;97143.78;;;20.46;43.81
3150;BME280;32503;47.748;8.960;2023-05-25T07:52:41;97142.50;;;20.54;44.10
3150;BME280;32503;47.748;8.960;2023-05-25T07:55:09;97139.06;;;20.46;44.14
3150;BME280;32503;47.748;8.960;2023-05-25T07:57:37;97133.09;;;20.52;44.42
3150;BME280;32503;47.748;8.960;2023-05-25T08:00:05;97140.22;;;20.49;43.79
3150;BME280;32503;47.748;8.960;2023-05-25T08:02:33;97148.34;;;20.25;44.66
3150;BME280;32503;47.748;8.960;2023-05-25T08:05:00;97139.22;;;20.05;45.47
3150;BME280;32503;47.748;8.960;2023-05-25T08:07:31;97147.91;;;19.58;46.15
3150;BME280;32503;47.748;8.960;2023-05-25T08:10:00;97140.91;;;19.54;46.27
3150;BME280;32503;47.748;8.960;2023-05-25T08:12:27;97154.56;;;19.61;46.48
3150;BME280;32503;47.748;8.960;2023-05-25T08:14:54;97149.75;;;19.68;46.56
3150;BME280;32503;47.748;8.960;2023-05-25T08:17:21;97148.69;;;19.55;46.65
3150;BME280;32503;47.748;8.960;2023-05-25T08:19:48;97149.78;;;19.23;47.94
3150;BME280;32503;47.748;8.960;2023-05-25T08:22:16;97151.88;;;19.50;46.57
3150;BME280;32503;47.748;8.960;2023-05-25T08:24:43;97160.38;;;19.66;46.95
3150;BME280;32503;47.748;8.960;2023-05-25T08:27:11;97171.88;;;19.92;46.28
3150;BME280;32503;47.748;8.960;2023-05-25T08:29:38;97168.94;;;20.10;46.10
3150;BME280;32503;47.748;8.960;2023-05-25T08:32:06;97166.06;;;20.21;45.95
3150;BME280;32503;47.748;8.960;2023-05-25T08:34:33;97169.22;;;20.19;46.01
3150;BME280;32503;47.748;8.960;2023-05-25T08:37:00;97172.47;;;20.11;46.28
3150;BME280;32503;47.748;8.960;2023-05-25T08:39:27;97180.47;;;19.98;46.48
3150;BME280;32503;47.748;8.960;2023-05-25T08:41:54;97178.19;;;19.89;46.74
3150;BME280;32503;47.748;8.960;2023-05-25T08:44:23;97175.38;;;19.96;46.75
3150;BME280;32503;47.748;8.960;2023-05-25T08:46:50;97179.97;;;20.03;46.99
3150;BME280;32503;47.748;8.960;2023-05-25T08:49:19;97188.56;;;20.08;47.09
3150;BME280;32503;47.748;8.960;2023-05-25T08:51:49;97191.75;;;20.03;47.11
3150;BME280;32503;47.748;8.960;2023-05-25T08:54:18;97192.06;;;20.09;46.70
3150;BME280;32503;47.748;8.960;2023-05-25T08:56:49;97187.44;;;20.02;46.70
3150;BME280;32503;47.748;8.960;2023-05-25T08:59:29;97178.31;;;19.71;47.47
3150;BME280;32503;47.748;8.960;2023-05-25T09:02:09;97187.34;;;19.75;47.33
3150;BME280;32503;47.748;8.960;2023-05-25T09:04:42;97191.16;;;19.85;47.25
3150;BME280;32503;47.748;8.960;2023-05-25T09:07:09;97187.59;;;19.88;47.16
3150;BME280;32503;47.748;8.960;2023-05-25T09:09:37;97195.47;;;19.86;47.58
3150;BME280;32503;47.748;8.960;2023-05-25T09:12:07;97203.72;;;19.82;47.79
3150;BME280;32503;47.748;8.960;2023-05-25T09:14:36;97206.91;;;19.77;47.85
3150;BME280;32503;47.748;8.960;2023-05-25T09:17:10;97217.53;;;19.72;47.95
3150;BME280;32503;47.748;8.960;2023-05-25T09:19:38;97214.78;;;19.75;48.12
3150;BME280;32503;47.748;8.960;2023-05-25T09:22:05;97213.53;;;19.80;48.41
3150;BME280;32503;47.748;8.960;2023-05-25T09:24:33;97210.16;;;19.61;49.05
3150;BME280;32503;47.748;8.960;2023-05-25T09:27:00;97193.53;;;19.34;48.74
3150;BME280;32503;47.748;8.960;2023-05-25T09:29:28;97225.69;;;19.30;49.36
3150;BME280;32503;47.748;8.960;2023-05-25T09:31:59;97233.50;;;19.31;49.27
3150;BME280;32503;47.748;8.960;2023-05-25T09:34:30;97229.16;;;19.38;49.56
3150;BME280;32503;47.748;8.960;2023-05-25T09:36:58;97228.75;;;19.39;49.45
3150;BME280;32503;47.748;8.960;2023-05-25T09:39:25;97235.28;;;19.56;49.56
3150;BME280;32503;47.748;8.960;2023-05-25T09:41:52;97234.75;;;19.72;49.19
3150;BME280;32503;47.748;8.960;2023-05-25T09:44:20;97243.72;;;19.80;48.91
3150;BME280;32503;47.748;8.960;2023-05-25T09:46:47;97241.72;;;19.84;48.77
3150;BME280;32503;47.748;8.960;2023-05-25T09:49:15;97249.53;;;19.89;48.75
3150;BME280;32503;47.748;8.960;2023-05-25T09:51:44;97255.16;;;20.13;48.76
3150;BME280;32503;47.748;8.960;2023-05-25T09:54:11;97245.22;;;20.26;47.90
3150;BME280;32503;47.748;8.960;2023-05-25T09:56:38;97249.06;;;20.32;47.54
3150;BME280;32503;47.748;8.960;2023-05-25T09:59:06;97234.16;;;20.33;47.34
3150;BME280;32503;47.748;8.960;2023-05-25T10:01:34;97250.06;;;20.49;47.72
3150;BME280;32503;47.748;8.960;2023-05-25T10:04:02;97253.53;;;20.53;47.73
3150;BME280;32503;47.748;8.960;2023-05-25T10:06:31;97263.91;;;20.38;47.92
3150;BME280;32503;47.748;8.960;2023-05-25T10:09:00;97261.50;;;20.44;47.90
3150;BME280;32503;47.748;8.960;2023-05-25T10:11:27;97267.75;;;20.44;48.51
3150;BME280;32503;47.748;8.960;2023-05-25T10:13:55;97267.69;;;20.52;48.08
3150;BME280;32503;47.748;8.960;2023-05-25T10:16:25;97267.59;;;20.59;47.08
3150;BME280;32503;47.748;8.960;2023-05-25T10:18:58;97240.22;;;20.52;47.90
3150;BME280;32503;47.748;8.960;2023-05-25T10:21:29;97269.72;;;20.78;46.92
3150;BME280;32503;47.748;8.960;2023-05-25T10:24:02;97270.53;;;20.79;46.92
3150;BME280;32503;47.748;8.960;2023-05-25T10:26:34;97269.91;;;20.64;47.51
3150;BME280;32503;47.748;8.960;2023-05-25T10:29:04;97271.09;;;20.59;47.47
3150;BME280;32503;47.748;8.960;2023-05-25T10:31:34;97268.28;;;20.70;47.27
3150;BME280;32503;47.748;8.960;2023-05-25T10:34:02;97269.06;;;20.71;47.98
3150;BME280;32503;47.748;8.960;2023-05-25T10:36:32;97272.94;;;20.73;47.90
3150;BME280;32503;47.748;8.960;2023-05-25T10:39:00;97280.44;;;20.69;47.42
3150;BME280;32503;47.748;8.960;2023-05-25T10:41:28;97271.06;;;20.67;47.34
3150;BME280;32503;47.748;8.960;2023-05-25T10:43:55;97279.94;;;20.78;47.46
3150;BME280;32503;47.748;8.960;2023-05-25T10:46:22;97274.47;;;20.78;47.65
3150;BME280;32503;47.748;8.960;2023-05-25T10:48:50;97282.97;;;20.87;47.64
3150;BME280;32503;47.748;8.960;2023-05-25T10:51:19;97278.94;;;20.95;47.98
3150;BME280;32503;47.748;8.960;2023-05-25T10:53:58;97274.00;;;21.10;47.03
3150;BME280;32503;47.748;8.960;2023-05-25T10:56:26;97284.09;;;21.20;46.76
3150;BME280;32503;47.748;8.960;2023-05-25T10:58:53;97272.38;;;21.16;47.38
3150;BME280;32503;47.748;8.960;2023-05-25T11:01:21;97267.22;;;21.18;47.38
3150;BME280;32503;47.748;8.960;2023-05-25T11:03:56;97280.25;;;21.14;47.28
3150;BME280;32503;47.748;8.960;2023-05-25T11:07:04;97267.22;;;21.18;47.34
3150;BME280;32503;47.748;8.960;2023-05-25T11:09:33;97280.78;;;21.33;47.20
3150;BME280;32503;47.748;8.960;2023-05-25T11:12:03;97277.09;;;21.43;46.16
3150;BME280;32503;47.748;8.960;2023-05-25T11:14:32;97283.22;;;21.54;46.40
3150;BME280;32503;47.748;8.960;2023-05-25T11:17:07;97278.69;;;21.68;45.40
3150;BME280;32503;47.748;8.960;2023-05-25T11:19:44;97276.19;;;21.77;45.11
3150;BME280;32503;47.748;8.960;2023-05-25T11:22:15;97280.66;;;21.91;45.01
3150;BME280;32503;47.748;8.960;2023-05-25T11:27:11;97274.25;;;21.74;45.69
3150;BME280;32503;47.748;8.960;2023-05-25T11:29:39;97276.41;;;21.86;46.05
3150;BME280;32503;47.748;8.960;2023-05-25T11:32:12;97286.69;;;22.06;45.72
3150;BME280;32503;47.748;8.960;2023-05-25T11:34:40;97280.13;;;22.00;45.04
3150;BME280;32503;47.748;8.960;2023-05-25T11:37:12;97284.19;;;22.15;44.34
3150;BME280;32503;47.748;8.960;2023-05-25T11:39:46;97263.69;;;22.16;45.37
3150;BME280;32503;47.748;8.960;2023-05-25T11:42:14;97274.94;;;22.25;44.92
3150;BME280;32503;47.748;8.960;2023-05-25T11:44:43;97279.16;;;22.33;44.89
3150;BME280;32503;47.748;8.960;2023-05-25T11:47:11;97285.25;;;22.45;44.71
3150;BME280;32503;47.748;8.960;2023-05-25T11:49:39;97286.72;;;22.49;43.91
3150;BME280;32503;47.748;8.960;2023-05-25T11:52:09;97285.09;;;22.52;44.16
3150;BME280;32503;47.748;8.960;2023-05-25T11:54:37;97277.81;;;22.62;44.13
3150;BME280;32503;47.748;8.960;2023-05-25T11:57:14;97273.88;;;22.63;43.84
3150;BME280;32503;47.748;8.960;2023-05-25T11:59:47;97268.06;;;22.77;43.48
3150;BME280;32503;47.748;8.960;2023-05-25T12:02:15;97272.22;;;22.65;44.00
3150;BME280;32503;47.748;8.960;2023-05-25T12:04:52;97265.66;;;22.79;43.43
3150;BME280;32503;47.748;8.960;2023-05-25T12:07:19;97266.72;;;22.65;44.43
3150;BME280;32503;47.748;8.960;2023-05-25T12:09:47;97268.47;;;22.76;43.38
3150;BME280;32503;47.748;8.960;2023-05-25T12:12:15;97267.34;;;22.53;43.61
3150;BME280;32503;47.748;8.960;2023-05-25T12:14:46;97257.31;;;22.43;43.52
3150;BME280;32503;47.748;8.960;2023-05-25T12:17:14;97267.47;;;22.66;43.26
3150;BME280;32503;47.748;8.960;2023-05-25T12:19:42;97264.22;;;22.71;44.03
3150;BME280;32503;47.748;8.960;2023-05-25T12:22:10;97258.31;;;22.72;43.66
3150;BME280;32503;47.748;8.960;2023-05-25T12:24:38;97267.13;;;22.84;43.34
3150;BME280;32503;47.748;8.960;2023-05-25T12:27:18;97260.31;;;22.88;43.64
3150;BME280;32503;47.748;8.960;2023-05-25T12:29:46;97258.72;;;22.91;43.67
3150;BME280;32503;47.748;8.960;2023-05-25T12:32:14;97252.06;;;22.88;43.58
3150;BME280;32503;47.748;8.960;2023-05-25T12:34:41;97254.31;;;23.14;43.73
3150;BME280;32503;47.748;8.960;2023-05-25T12:37:17;97248.47;;;23.28;43.27
3150;BME280;32503;47.748;8.960;2023-05-25T12:39:45;97258.81;;;23.04;43.04
3150;BME280;32503;47.748;8.960;2023-05-25T12:42:14;97264.50;;;22.97;43.67
3150;BME280;32503;47.748;8.960;2023-05-25T12:44:44;97269.41;;;22.89;43.31
3150;BME280;32503;47.748;8.960;2023-05-25T12:47:14;97270.94;;;22.90;42.99
3150;BME280;32503;47.748;8.960;2023-05-25T12:49:43;97266.41;;;22.80;43.14
3150;BME280;32503;47.748;8.960;2023-05-25T12:52:11;97271.59;;;22.78;43.37
3150;BME280;32503;47.748;8.960;2023-05-25T12:54:56;97267.63;;;22.59;43.79
3150;BME280;32503;47.748;8.960;2023-05-25T12:57:33;97275.75;;;22.86;43.87
3150;BME280;32503;47.748;8.960;2023-05-25T13:00:02;97270.09;;;22.93;43.86
3150;BME280;32503;47.748;8.960;2023-05-25T13:02:30;97275.59;;;22.93;43.88
3150;BME280;32503;47.748;8.960;2023-05-25T13:04:57;97268.38;;;22.99;43.30
3150;BME280;32503;47.748;8.960;2023-05-25T13:07:25;97266.69;;;23.05;43.35
3150;BME280;32503;47.748;8.960;2023-05-25T13:09:52;97278.25;;;23.17;43.60
3150;BME280;32503;47.748;8.960;2023-05-25T13:12:19;97267.50;;;23.22;43.22
3150;BME280;32503;47.748;8.960;2023-05-25T13:14:46;97275.16;;;23.15;42.99
3150;BME280;32503;47.748;8.960;2023-05-25T13:17:15;97271.22;;;23.16;43.09
3150;BME280;32503;47.748;8.960;2023-05-25T13:19:42;97270.69;;;23.21;43.27